Sincerity Ace — 3FFD7 — position and weather

sailwx.info

Track history (hours):
 
Tides and Currents Weather Stations Pressure Air Temp Water Temp Dewpoint Dewpoint Depression Visibility Wind Speed Wind Dir Waves Ship Positions

Sincerity Ace

Last reported at 2015-Jul-19 16:27 UTC. Time now 2015-Aug-04 03:18 UTC.
Position S 34°13' E 025°43'.
Warning: this ship's position is 15 days out of date.

Length 200 m; draft 9.2 m.

Type: Cargo ship. MMSI: 351690000.

Date/timePositionNaut miles runAvg speedWind from/ knotsBaromVisibWave heightAir tempDewpointWater temp
2015-Jul-19 16:27S 34°13' E 025°43'1617.0
2015-Jul-19 15:32S 34°07' E 026°01'1716.7
2015-Jul-19 14:31S 34°02' E 026°20'31917.3
2015-Jul-18 20:07S 30°24' E 030°55'916.0
2015-Jul-18 19:33S 30°16' E 031°00'1615.8
2015-Jul-18 18:33S 30°01' E 031°06'9 8.8
2015-Jul-18 17:33S 29°53' E 031°03'1 1.1
2015-Jul-18 16:33S 29°52' E 031°02'0 0.0
2015-Jul-18 15:33S 29°52' E 031°02'0 0.0
2015-Jul-18 14:33S 29°52' E 031°02'0 0.0
2015-Jul-18 13:33S 29°52' E 031°02'0 0.0
2015-Jul-18 12:33S 29°52' E 031°02'0 0.0
2015-Jul-18 11:33S 29°52' E 031°02'0 0.0
2015-Jul-18 10:27S 29°52' E 031°02'0 0.0
2015-Jul-18 09:30S 29°52' E 031°02'0 0.0
2015-Jul-18 08:33S 29°52' E 031°02'0 0.0
2015-Jul-18 07:33S 29°52' E 031°02'0 0.0
2015-Jul-18 06:33S 29°52' E 031°02'0 0.0
2015-Jul-18 05:33S 29°52' E 031°02'0 0.0
2015-Jul-18 04:33S 29°52' E 031°02'0 0.0
2015-Jul-18 03:33S 29°52' E 031°02'0 0.0
2015-Jul-18 02:33S 29°52' E 031°02'0 0.0
2015-Jul-18 01:33S 29°52' E 031°02'0 0.0
2015-Jul-18 00:33S 29°52' E 031°02'0 0.0
2015-Jul-17 23:33S 29°52' E 031°02'0 0.0
2015-Jul-17 22:33S 29°52' E 031°02'0 0.0
2015-Jul-17 21:33S 29°52' E 031°02'0 0.0
2015-Jul-17 20:33S 29°52' E 031°02'0 0.0
2015-Jul-17 19:33S 29°52' E 031°02'0 0.0
2015-Jul-17 18:33S 29°52' E 031°02'0 0.0
2015-Jul-17 17:33S 29°52' E 031°02'0 0.0
2015-Jul-17 16:33S 29°52' E 031°02'0 0.0
2015-Jul-17 15:33S 29°52' E 031°02'0 0.0
2015-Jul-17 14:33S 29°52' E 031°02'0 0.0
2015-Jul-17 13:33S 29°52' E 031°02'0 0.0
2015-Jul-17 12:33S 29°52' E 031°02'0 0.0
2015-Jul-17 11:33S 29°52' E 031°02'0 0.0
2015-Jul-17 10:33S 29°52' E 031°02'0 0.0
2015-Jul-17 09:33S 29°52' E 031°02'0 0.0
2015-Jul-17 08:33S 29°52' E 031°02'0 0.0
2015-Jul-17 07:33S 29°52' E 031°02'0 0.0
2015-Jul-17 06:33S 29°52' E 031°02'0 0.0
2015-Jul-17 05:33S 29°52' E 031°02'0 0.0
2015-Jul-17 04:33S 29°52' E 031°02'0 0.0
2015-Jul-17 03:33S 29°52' E 031°02'0 0.0
2015-Jul-17 02:33S 29°52' E 031°02'0 0.0
2015-Jul-17 01:33S 29°52' E 031°02'0 0.0
2015-Jul-17 00:33S 29°52' E 031°02'0 0.0
2015-Jul-16 23:33S 29°52' E 031°02'0 0.0
2015-Jul-16 22:33S 29°52' E 031°02'0 0.0
2015-Jul-16 21:33S 29°52' E 031°02'0 0.0
2015-Jul-16 20:33S 29°52' E 031°02'3 3.5
2015-Jul-16 19:33S 29°50' E 031°05'5 5.3
2015-Jul-16 18:33S 29°50' E 031°11'7 7.1
2015-Jul-16 17:33S 29°50' E 031°20'8 7.9
2015-Jul-16 16:33S 29°52' E 031°29'3 3.2
2015-Jul-16 15:31S 29°52' E 031°32'2 2.5
2015-Jul-16 14:33S 29°51' E 031°34'4 4.2
2015-Jul-16 13:34S 29°50' E 031°30'3 2.6
2015-Jul-16 12:30S 29°52' E 031°27'3 2.7
2015-Jul-16 11:33S 29°53' E 031°30'3 3.2
2015-Jul-16 10:34S 29°52' E 031°34'4 3.5
2015-Jul-16 09:34S 29°51' E 031°38'3 3.1
2015-Jul-16 08:33S 29°50' E 031°41'1 1.4
2015-Jul-16 07:33S 29°49' E 031°40'10 9.8
2015-Jul-16 06:33S 29°51' E 031°29'1 0.8
2015-Jul-16 05:30S 29°51' E 031°28'1 1.5
2015-Jul-16 04:33S 29°51' E 031°29'2 1.9
2015-Jul-16 03:33S 29°50' E 031°31'1 1.0
2015-Jul-16 02:33S 29°49' E 031°32'1 1.0
2015-Jul-16 01:33S 29°49' E 031°33'1 1.2
2015-Jul-16 00:33S 29°49' E 031°35'1 1.2
2015-Jul-15 23:33S 29°49' E 031°36'1 1.0
2015-Jul-15 22:33S 29°49' E 031°37'1 1.2
2015-Jul-15 21:33S 29°49' E 031°39'1 0.6
2015-Jul-15 20:34S 29°49' E 031°39'1211.5
2015-Jul-15 19:34S 29°57' E 031°31'2 1.7
2015-Jul-15 18:31S 29°59' E 031°30'2 2.4
2015-Jul-15 17:31S 29°57' E 031°32'2 2.4
2015-Jul-15 16:33S 29°56' E 031°34'2 1.8
2015-Jul-15 15:33S 29°55' E 031°35'3 2.7
2015-Jul-15 14:33S 29°53' E 031°38'2 0.7
2015-Jul-15 11:33S 29°51' E 031°37'9 9.0
2015-Jul-15 10:33S 29°58' E 031°30'3 2.9
2015-Jul-15 09:32S 29°59' E 031°27'2 2.4
2015-Jul-15 08:33S 29°57' E 031°28'3 3.2
2015-Jul-15 07:33S 29°54' E 031°31'4 3.9
2015-Jul-15 06:33S 29°51' E 031°34'4 4.0
2015-Jul-15 05:33S 29°48' E 031°37'4 3.9
2015-Jul-15 04:34S 29°46' E 031°40'1 1.3
2015-Jul-15 03:34S 29°46' E 031°41'8 8.3
2015-Jul-15 02:33S 29°53' E 031°36'8 8.1
2015-Jul-15 01:34S 30°00' E 031°31'4 3.6
2015-Jul-15 00:34S 29°58' E 031°35'4 3.6
2015-Jul-14 23:33S 29°57' E 031°38'3 2.6
2015-Jul-14 22:31S 29°55' E 031°41'2 1.9
2015-Jul-14 21:33S 29°53' E 031°42'1 1.4
2015-Jul-14 20:33S 29°52' E 031°42'5 5.2
2015-Jul-14 19:33S 29°47' E 031°45'5 5.3
2015-Jul-14 18:33S 29°52' E 031°46'2 1.5
2015-Jul-14 17:17S 29°51' E 031°47'1 1.3
2015-Jul-14 16:32S 29°50' E 031°48'8 8.1
2015-Jul-14 15:33S 29°53' E 031°40'7 6.8
2015-Jul-14 14:32S 29°54' E 031°32'2 1.7
2015-Jul-14 13:31S 29°53' E 031°33'1 1.4
2015-Jul-14 12:31S 29°52' E 031°34'1 1.4
2015-Jul-14 11:31S 29°52' E 031°36'1 1.4
2015-Jul-14 10:31S 29°51' E 031°37'3 3.2
2015-Jul-14 09:33S 29°53' E 031°34'1 1.5
2015-Jul-14 08:33S 29°52' E 031°36'1 1.3
2015-Jul-14 07:33S 29°52' E 031°37'4 3.6
2015-Jul-14 06:34S 29°52' E 031°33'5 5.0
2015-Jul-14 05:32S 29°52' E 031°27'1 0.8
2015-Jul-14 04:32S 29°51' E 031°28'1 0.9
2015-Jul-14 03:29S 29°51' E 031°29'1 1.0
2015-Jul-14 02:29S 29°50' E 031°30'1 1.2
2015-Jul-14 01:32S 29°50' E 031°31'1 1.2
2015-Jul-14 00:32S 29°50' E 031°32'1 1.0
2015-Jul-13 23:32S 29°50' E 031°33'1 1.1
2015-Jul-13 22:32S 29°51' E 031°35'1 0.8
2015-Jul-13 21:32S 29°51' E 031°36'0 0.5
2015-Jul-13 20:32S 29°51' E 031°36'1 0.7
2015-Jul-13 19:32S 29°51' E 031°37'1 1.5
2015-Jul-13 18:33S 29°49' E 031°36'4 3.7
2015-Jul-13 17:33S 29°46' E 031°34'2 1.8
2015-Jul-13 16:30S 29°47' E 031°36'2 1.8
2015-Jul-13 15:33S 29°48' E 031°38'1 1.5
2015-Jul-13 14:33S 29°49' E 031°39'1 1.1
2015-Jul-13 13:33S 29°48' E 031°40'1 0.7
2015-Jul-13 12:33S 29°48' E 031°41'4 4.5
2015-Jul-13 11:33S 29°51' E 031°38'1 1.0
2015-Jul-13 10:32S 29°52' E 031°38'5 5.6
2015-Jul-13 09:34S 29°56' E 031°33'1110.8
2015-Jul-13 08:34S 30°02' E 031°23'1211.6
2015-Jul-13 07:33S 30°03' E 031°10'1616.2
2015-Jul-13 06:33S 30°17' E 031°00'25314.8
2015-Jul-12 13:26S 33°27' E 027°44'6415.8
2015-Jul-12 09:23S 33°52' E 026°33'3317.9
2015-Jul-12 07:31S 33°55' E 025°53'44 1.7
2015-Jul-11 06:05S 34°36' E 025°34'  
Track history (hours):
 
Tides and Currents Weather Stations Pressure Air Temp Water Temp Dewpoint Dewpoint Depression Visibility Wind Speed Wind Dir Waves Ship Positions

Sincerity Ace

Last reported at 2015-Jul-19 16:27 UTC. Time now 2015-Aug-04 03:18 UTC.
Position S 34°13' E 025°43'.
Warning: this ship's position is 15 days out of date.

Length 200 m; draft 9.2 m.

Type: Cargo ship. MMSI: 351690000.

Date/timePositionNaut miles runAvg speedWind from/ knotsBaromVisibWave heightAir tempDewpointWater temp
2015-Jul-19 16:27S 34°13' E 025°43'1617.0
2015-Jul-19 15:32S 34°07' E 026°01'1716.7
2015-Jul-19 14:31S 34°02' E 026°20'31917.3
2015-Jul-18 20:07S 30°24' E 030°55'916.0
2015-Jul-18 19:33S 30°16' E 031°00'1615.8
2015-Jul-18 18:33S 30°01' E 031°06'9 8.8
2015-Jul-18 17:33S 29°53' E 031°03'1 1.1
2015-Jul-18 16:33S 29°52' E 031°02'0 0.0
2015-Jul-18 15:33S 29°52' E 031°02'0 0.0
2015-Jul-18 14:33S 29°52' E 031°02'0 0.0
2015-Jul-18 13:33S 29°52' E 031°02'0 0.0
2015-Jul-18 12:33S 29°52' E 031°02'0 0.0
2015-Jul-18 11:33S 29°52' E 031°02'0 0.0
2015-Jul-18 10:27S 29°52' E 031°02'0 0.0
2015-Jul-18 09:30S 29°52' E 031°02'0 0.0
2015-Jul-18 08:33S 29°52' E 031°02'0 0.0
2015-Jul-18 07:33S 29°52' E 031°02'0 0.0
2015-Jul-18 06:33S 29°52' E 031°02'0 0.0
2015-Jul-18 05:33S 29°52' E 031°02'0 0.0
2015-Jul-18 04:33S 29°52' E 031°02'0 0.0
2015-Jul-18 03:33S 29°52' E 031°02'0 0.0
2015-Jul-18 02:33S 29°52' E 031°02'0 0.0
2015-Jul-18 01:33S 29°52' E 031°02'0 0.0
2015-Jul-18 00:33S 29°52' E 031°02'0 0.0
2015-Jul-17 23:33S 29°52' E 031°02'0 0.0
2015-Jul-17 22:33S 29°52' E 031°02'0 0.0
2015-Jul-17 21:33S 29°52' E 031°02'0 0.0
2015-Jul-17 20:33S 29°52' E 031°02'0 0.0
2015-Jul-17 19:33S 29°52' E 031°02'0 0.0
2015-Jul-17 18:33S 29°52' E 031°02'0 0.0
2015-Jul-17 17:33S 29°52' E 031°02'0 0.0
2015-Jul-17 16:33S 29°52' E 031°02'0 0.0
2015-Jul-17 15:33S 29°52' E 031°02'0 0.0
2015-Jul-17 14:33S 29°52' E 031°02'0 0.0
2015-Jul-17 13:33S 29°52' E 031°02'0 0.0
2015-Jul-17 12:33S 29°52' E 031°02'0 0.0
2015-Jul-17 11:33S 29°52' E 031°02'0 0.0
2015-Jul-17 10:33S 29°52' E 031°02'0 0.0
2015-Jul-17 09:33S 29°52' E 031°02'0 0.0
2015-Jul-17 08:33S 29°52' E 031°02'0 0.0
2015-Jul-17 07:33S 29°52' E 031°02'0 0.0
2015-Jul-17 06:33S 29°52' E 031°02'0 0.0
2015-Jul-17 05:33S 29°52' E 031°02'0 0.0
2015-Jul-17 04:33S 29°52' E 031°02'0 0.0
2015-Jul-17 03:33S 29°52' E 031°02'0 0.0
2015-Jul-17 02:33S 29°52' E 031°02'0 0.0
2015-Jul-17 01:33S 29°52' E 031°02'0 0.0
2015-Jul-17 00:33S 29°52' E 031°02'0 0.0
2015-Jul-16 23:33S 29°52' E 031°02'0 0.0
2015-Jul-16 22:33S 29°52' E 031°02'0 0.0
2015-Jul-16 21:33S 29°52' E 031°02'0 0.0
2015-Jul-16 20:33S 29°52' E 031°02'3 3.5
2015-Jul-16 19:33S 29°50' E 031°05'5 5.3
2015-Jul-16 18:33S 29°50' E 031°11'7 7.1
2015-Jul-16 17:33S 29°50' E 031°20'8 7.9
2015-Jul-16 16:33S 29°52' E 031°29'3 3.2
2015-Jul-16 15:31S 29°52' E 031°32'2 2.5
2015-Jul-16 14:33S 29°51' E 031°34'4 4.2
2015-Jul-16 13:34S 29°50' E 031°30'3 2.6
2015-Jul-16 12:30S 29°52' E 031°27'3 2.7
2015-Jul-16 11:33S 29°53' E 031°30'3 3.2
2015-Jul-16 10:34S 29°52' E 031°34'4 3.5
2015-Jul-16 09:34S 29°51' E 031°38'3 3.1
2015-Jul-16 08:33S 29°50' E 031°41'1 1.4
2015-Jul-16 07:33S 29°49' E 031°40'10 9.8
2015-Jul-16 06:33S 29°51' E 031°29'1 0.8
2015-Jul-16 05:30S 29°51' E 031°28'1 1.5
2015-Jul-16 04:33S 29°51' E 031°29'2 1.9
2015-Jul-16 03:33S 29°50' E 031°31'1 1.0
2015-Jul-16 02:33S 29°49' E 031°32'1 1.0
2015-Jul-16 01:33S 29°49' E 031°33'1 1.2
2015-Jul-16 00:33S 29°49' E 031°35'1 1.2
2015-Jul-15 23:33S 29°49' E 031°36'1 1.0
2015-Jul-15 22:33S 29°49' E 031°37'1 1.2
2015-Jul-15 21:33S 29°49' E 031°39'1 0.6
2015-Jul-15 20:34S 29°49' E 031°39'1211.5
2015-Jul-15 19:34S 29°57' E 031°31'2 1.7
2015-Jul-15 18:31S 29°59' E 031°30'2 2.4
2015-Jul-15 17:31S 29°57' E 031°32'2 2.4
2015-Jul-15 16:33S 29°56' E 031°34'2 1.8
2015-Jul-15 15:33S 29°55' E 031°35'3 2.7
2015-Jul-15 14:33S 29°53' E 031°38'2 0.7
2015-Jul-15 11:33S 29°51' E 031°37'9 9.0
2015-Jul-15 10:33S 29°58' E 031°30'3 2.9
2015-Jul-15 09:32S 29°59' E 031°27'2 2.4
2015-Jul-15 08:33S 29°57' E 031°28'3 3.2
2015-Jul-15 07:33S 29°54' E 031°31'4 3.9
2015-Jul-15 06:33S 29°51' E 031°34'4 4.0
2015-Jul-15 05:33S 29°48' E 031°37'4 3.9
2015-Jul-15 04:34S 29°46' E 031°40'1 1.3
2015-Jul-15 03:34S 29°46' E 031°41'8 8.3
2015-Jul-15 02:33S 29°53' E 031°36'8 8.1
2015-Jul-15 01:34S 30°00' E 031°31'4 3.6
2015-Jul-15 00:34S 29°58' E 031°35'4 3.6
2015-Jul-14 23:33S 29°57' E 031°38'3 2.6
2015-Jul-14 22:31S 29°55' E 031°41'2 1.9
2015-Jul-14 21:33S 29°53' E 031°42'1 1.4
2015-Jul-14 20:33S 29°52' E 031°42'5 5.2
2015-Jul-14 19:33S 29°47' E 031°45'5 5.3
2015-Jul-14 18:33S 29°52' E 031°46'2 1.5
2015-Jul-14 17:17S 29°51' E 031°47'1 1.3
2015-Jul-14 16:32S 29°50' E 031°48'8 8.1
2015-Jul-14 15:33S 29°53' E 031°40'7 6.8
2015-Jul-14 14:32S 29°54' E 031°32'2 1.7
2015-Jul-14 13:31S 29°53' E 031°33'1 1.4
2015-Jul-14 12:31S 29°52' E 031°34'1 1.4
2015-Jul-14 11:31S 29°52' E 031°36'1 1.4
2015-Jul-14 10:31S 29°51' E 031°37'3 3.2
2015-Jul-14 09:33S 29°53' E 031°34'1 1.5
2015-Jul-14 08:33S 29°52' E 031°36'1 1.3
2015-Jul-14 07:33S 29°52' E 031°37'4 3.6
2015-Jul-14 06:34S 29°52' E 031°33'5 5.0
2015-Jul-14 05:32S 29°52' E 031°27'1 0.8
2015-Jul-14 04:32S 29°51' E 031°28'1 0.9
2015-Jul-14 03:29S 29°51' E 031°29'1 1.0
2015-Jul-14 02:29S 29°50' E 031°30'1 1.2
2015-Jul-14 01:32S 29°50' E 031°31'1 1.2
2015-Jul-14 00:32S 29°50' E 031°32'1 1.0
2015-Jul-13 23:32S 29°50' E 031°33'1 1.1
2015-Jul-13 22:32S 29°51' E 031°35'1 0.8
2015-Jul-13 21:32S 29°51' E 031°36'0 0.5
2015-Jul-13 20:32S 29°51' E 031°36'1 0.7
2015-Jul-13 19:32S 29°51' E 031°37'1 1.5
2015-Jul-13 18:33S 29°49' E 031°36'4 3.7
2015-Jul-13 17:33S 29°46' E 031°34'2 1.8
2015-Jul-13 16:30S 29°47' E 031°36'2 1.8
2015-Jul-13 15:33S 29°48' E 031°38'1 1.5
2015-Jul-13 14:33S 29°49' E 031°39'1 1.1
2015-Jul-13 13:33S 29°48' E 031°40'1 0.7
2015-Jul-13 12:33S 29°48' E 031°41'4 4.5
2015-Jul-13 11:33S 29°51' E 031°38'1 1.0
2015-Jul-13 10:32S 29°52' E 031°38'5 5.6
2015-Jul-13 09:34S 29°56' E 031°33'1110.8
2015-Jul-13 08:34S 30°02' E 031°23'1211.6
2015-Jul-13 07:33S 30°03' E 031°10'1616.2
2015-Jul-13 06:33S 30°17' E 031°00'25314.8
2015-Jul-12 13:26S 33°27' E 027°44'6415.8
2015-Jul-12 09:23S 33°52' E 026°33'3317.9
2015-Jul-12 07:31S 33°55' E 025°53'44 1.7
2015-Jul-11 06:05S 34°36' E 025°34'  

Dump ship's entire track history